Terminal Aerodrome Forecast
Issued by NWS Springfield, MO

Home | Current Version | Previous Version | Text Only | Print | Product List | Glossary On
Versions: 1 2 3 4 5 6 7 8 9 10 11 12 13 14 15 16 17 18 19 20
479
FTUS43 KSGF 172258 AAB
TAFSGF
TAF AMD
KSGF 172258Z 1723/1818 03005KT P6SM SCT050
     FM180400 09008KT P6SM SCT120
     FM181200 07006KT 3SM BR BKN130
     FM181300 08006KT P6SM BKN200=

USA.gov is the U.S. government's official web portal to all federal, state and local government web resources and services.